sensor_id;sensor_type;location;lat;lon;timestamp;pressure;altitude;pressure_sealevel;temperature;humidity
71361;BME280;59166;48.908;1.870;2024-01-30T00:03:59;101411.81;;;11.46;100.00
71361;BME280;59166;48.908;1.870;2024-01-30T00:09:00;101418.06;;;11.47;100.00
71361;BME280;59166;48.908;1.870;2024-01-30T00:14:00;101411.59;;;11.48;100.00
71361;BME280;59166;48.908;1.870;2024-01-30T00:19:02;101420.41;;;11.55;100.00
71361;BME280;59166;48.908;1.870;2024-01-30T00:24:03;101415.41;;;11.75;100.00
71361;BME280;59166;48.908;1.870;2024-01-30T00:29:04;101417.09;;;11.64;100.00
71361;BME280;59166;48.908;1.870;2024-01-30T00:34:06;101417.09;;;11.53;100.00
71361;BME280;59166;48.908;1.870;2024-01-30T00:39:07;101416.06;;;11.42;100.00
71361;BME280;59166;48.908;1.870;2024-01-30T00:44:07;101417.72;;;11.43;100.00
71361;BME280;59166;48.908;1.870;2024-01-30T00:49:10;101415.25;;;11.42;100.00
71361;BME280;59166;48.908;1.870;2024-01-30T00:54:11;101415.72;;;11.38;100.00
71361;BME280;59166;48.908;1.870;2024-01-30T00:59:11;101411.97;;;11.40;100.00
71361;BME280;59166;48.908;1.870;2024-01-30T01:04:13;101407.72;;;11.44;100.00
71361;BME280;59166;48.908;1.870;2024-01-30T01:09:14;101410.53;;;11.49;100.00
71361;BME280;59166;48.908;1.870;2024-01-30T01:14:15;101395.38;;;11.48;100.00
71361;BME280;59166;48.908;1.870;2024-01-30T01:19:17;101391.72;;;11.42;100.00
71361;BME280;59166;48.908;1.870;2024-01-30T01:24:17;101399.13;;;11.47;100.00
71361;BME280;59166;48.908;1.870;2024-01-30T01:29:18;101396.06;;;11.43;100.00
71361;BME280;59166;48.908;1.870;2024-01-30T01:34:20;101388.19;;;11.42;100.00
71361;BME280;59166;48.908;1.870;2024-01-30T01:39:21;101392.31;;;11.44;100.00
71361;BME280;59166;48.908;1.870;2024-01-30T01:44:22;101394.69;;;11.41;100.00
71361;BME280;59166;48.908;1.870;2024-01-30T01:49:25;101397.38;;;11.41;100.00
71361;BME280;59166;48.908;1.870;2024-01-30T01:54:28;101400.31;;;11.39;100.00
71361;BME280;59166;48.908;1.870;2024-01-30T01:59:29;101389.06;;;11.30;100.00
71361;BME280;59166;48.908;1.870;2024-01-30T02:04:32;101389.63;;;11.32;100.00
71361;BME280;59166;48.908;1.870;2024-01-30T02:09:32;101392.59;;;11.31;100.00
71361;BME280;59166;48.908;1.870;2024-01-30T02:14:33;101387.53;;;11.23;100.00
71361;BME280;59166;48.908;1.870;2024-01-30T02:19:35;101385.66;;;11.12;100.00
71361;BME280;59166;48.908;1.870;2024-01-30T02:24:37;101386.63;;;11.06;100.00
71361;BME280;59166;48.908;1.870;2024-01-30T02:29:37;101396.03;;;11.03;100.00
71361;BME280;59166;48.908;1.870;2024-01-30T02:34:38;101374.88;;;11.00;100.00
71361;BME280;59166;48.908;1.870;2024-01-30T02:39:40;101373.22;;;10.99;100.00
71361;BME280;59166;48.908;1.870;2024-01-30T02:44:41;101384.03;;;10.99;100.00
71361;BME280;59166;48.908;1.870;2024-01-30T02:49:41;101380.75;;;10.97;100.00
71361;BME280;59166;48.908;1.870;2024-01-30T02:54:44;101383.13;;;10.94;100.00
71361;BME280;59166;48.908;1.870;2024-01-30T02:59:44;101375.34;;;10.97;100.00
71361;BME280;59166;48.908;1.870;2024-01-30T03:04:45;101371.56;;;10.98;100.00
71361;BME280;59166;48.908;1.870;2024-01-30T03:09:47;101380.16;;;10.95;100.00
71361;BME280;59166;48.908;1.870;2024-01-30T03:14:48;101383.91;;;11.06;100.00
71361;BME280;59166;48.908;1.870;2024-01-30T03:19:48;101387.19;;;11.08;100.00
71361;BME280;59166;48.908;1.870;2024-01-30T03:24:50;101376.28;;;11.03;100.00
71361;BME280;59166;48.908;1.870;2024-01-30T03:29:51;101370.75;;;11.09;100.00
71361;BME280;59166;48.908;1.870;2024-01-30T03:34:52;101363.34;;;11.05;100.00
71361;BME280;59166;48.908;1.870;2024-01-30T03:39:54;101374.72;;;11.18;100.00
71361;BME280;59166;48.908;1.870;2024-01-30T03:44:54;101374.72;;;11.30;100.00
71361;BME280;59166;48.908;1.870;2024-01-30T03:49:55;101370.97;;;11.19;100.00
71361;BME280;59166;48.908;1.870;2024-01-30T03:54:57;101366.47;;;11.25;100.00
71361;BME280;59166;48.908;1.870;2024-01-30T03:59:57;101362.97;;;11.24;100.00
71361;BME280;59166;48.908;1.870;2024-01-30T04:04:58;101362.28;;;11.17;100.00
71361;BME280;59166;48.908;1.870;2024-01-30T04:10:00;101367.22;;;11.09;100.00
71361;BME280;59166;48.908;1.870;2024-01-30T04:15:01;101368.16;;;11.03;100.00
71361;BME280;59166;48.908;1.870;2024-01-30T04:20:02;101372.03;;;10.95;100.00
71361;BME280;59166;48.908;1.870;2024-01-30T04:25:04;101378.53;;;10.94;100.00
71361;BME280;59166;48.908;1.870;2024-01-30T04:30:06;101383.69;;;10.96;100.00
71361;BME280;59166;48.908;1.870;2024-01-30T04:35:07;101383.34;;;10.92;100.00
71361;BME280;59166;48.908;1.870;2024-01-30T04:40:10;101384.25;;;11.09;100.00
71361;BME280;59166;48.908;1.870;2024-01-30T04:45:11;101391.81;;;11.07;100.00
71361;BME280;59166;48.908;1.870;2024-01-30T04:50:12;101403.66;;;11.06;100.00
71361;BME280;59166;48.908;1.870;2024-01-30T04:55:15;101410.94;;;11.06;100.00
71361;BME280;59166;48.908;1.870;2024-01-30T05:00:16;101400.97;;;11.06;100.00
71361;BME280;59166;48.908;1.870;2024-01-30T05:05:16;101401.41;;;11.15;100.00
71361;BME280;59166;48.908;1.870;2024-01-30T05:10:18;101410.47;;;11.09;100.00
71361;BME280;59166;48.908;1.870;2024-01-30T05:15:19;101416.84;;;11.14;100.00
71361;BME280;59166;48.908;1.870;2024-01-30T05:20:20;101420.47;;;11.08;100.00
71361;BME280;59166;48.908;1.870;2024-01-30T05:25:22;101430.59;;;11.13;100.00
71361;BME280;59166;48.908;1.870;2024-01-30T05:30:22;101432.84;;;11.04;100.00
71361;BME280;59166;48.908;1.870;2024-01-30T05:35:23;101438.13;;;10.99;100.00
71361;BME280;59166;48.908;1.870;2024-01-30T05:40:25;101458.56;;;10.95;100.00
71361;BME280;59166;48.908;1.870;2024-01-30T05:45:25;101452.31;;;10.95;100.00
71361;BME280;59166;48.908;1.870;2024-01-30T05:50:26;101456.09;;;10.94;100.00
71361;BME280;59166;48.908;1.870;2024-01-30T05:55:28;101460.56;;;11.11;100.00
71361;BME280;59166;48.908;1.870;2024-01-30T06:00:29;101463.72;;;11.08;100.00
71361;BME280;59166;48.908;1.870;2024-01-30T06:05:29;101473.84;;;11.01;100.00
71361;BME280;59166;48.908;1.870;2024-01-30T06:10:31;101462.81;;;11.03;100.00
71361;BME280;59166;48.908;1.870;2024-01-30T06:15:32;101475.03;;;11.05;100.00
71361;BME280;59166;48.908;1.870;2024-01-30T06:20:33;101478.69;;;11.11;100.00
71361;BME280;59166;48.908;1.870;2024-01-30T06:25:35;101477.88;;;11.10;100.00
71361;BME280;59166;48.908;1.870;2024-01-30T06:30:35;101475.25;;;11.15;100.00
71361;BME280;59166;48.908;1.870;2024-01-30T06:35:36;101494.56;;;11.30;100.00
71361;BME280;59166;48.908;1.870;2024-01-30T06:40:38;101493.38;;;11.26;100.00
71361;BME280;59166;48.908;1.870;2024-01-30T06:45:39;101497.97;;;11.26;100.00
71361;BME280;59166;48.908;1.870;2024-01-30T06:50:39;101501.84;;;11.30;100.00
71361;BME280;59166;48.908;1.870;2024-01-30T06:55:41;101499.50;;;11.33;100.00
71361;BME280;59166;48.908;1.870;2024-01-30T07:00:42;101505.25;;;11.25;100.00
71361;BME280;59166;48.908;1.870;2024-01-30T07:05:43;101505.84;;;11.27;100.00
71361;BME280;59166;48.908;1.870;2024-01-30T07:10:45;101504.53;;;11.18;100.00
71361;BME280;59166;48.908;1.870;2024-01-30T07:15:45;101519.25;;;11.22;100.00
71361;BME280;59166;48.908;1.870;2024-01-30T07:20:46;101534.53;;;11.28;100.00
71361;BME280;59166;48.908;1.870;2024-01-30T07:25:48;101543.47;;;11.29;100.00
71361;BME280;59166;48.908;1.870;2024-01-30T07:30:48;101546.53;;;11.32;100.00
71361;BME280;59166;48.908;1.870;2024-01-30T07:35:49;101553.81;;;11.20;100.00
71361;BME280;59166;48.908;1.870;2024-01-30T07:40:51;101549.69;;;11.18;100.00
71361;BME280;59166;48.908;1.870;2024-01-30T07:45:52;101547.81;;;11.18;100.00
71361;BME280;59166;48.908;1.870;2024-01-30T07:50:52;101560.88;;;11.21;100.00
71361;BME280;59166;48.908;1.870;2024-01-30T07:55:54;101555.44;;;11.21;100.00
71361;BME280;59166;48.908;1.870;2024-01-30T08:00:55;101572.28;;;11.23;100.00
71361;BME280;59166;48.908;1.870;2024-01-30T08:05:55;101579.69;;;11.16;100.00
71361;BME280;59166;48.908;1.870;2024-01-30T08:10:57;101575.22;;;11.22;100.00
71361;BME280;59166;48.908;1.870;2024-01-30T08:15:58;101584.63;;;11.19;100.00
71361;BME280;59166;48.908;1.870;2024-01-30T08:20:59;101584.25;;;11.16;100.00
71361;BME280;59166;48.908;1.870;2024-01-30T08:26:01;101594.88;;;11.17;100.00
71361;BME280;59166;48.908;1.870;2024-01-30T08:31:02;101603.09;;;11.22;100.00
71361;BME280;59166;48.908;1.870;2024-01-30T08:36:03;101615.94;;;11.27;100.00
71361;BME280;59166;48.908;1.870;2024-01-30T08:41:05;101620.41;;;11.33;100.00
71361;BME280;59166;48.908;1.870;2024-01-30T08:46:06;101637.31;;;11.28;100.00
71361;BME280;59166;48.908;1.870;2024-01-30T08:51:06;101639.13;;;11.34;100.00
71361;BME280;59166;48.908;1.870;2024-01-30T08:56:08;101636.78;;;11.38;100.00
71361;BME280;59166;48.908;1.870;2024-01-30T09:01:09;101641.00;;;11.34;100.00
71361;BME280;59166;48.908;1.870;2024-01-30T09:06:10;101642.75;;;11.40;100.00
71361;BME280;59166;48.908;1.870;2024-01-30T09:11:13;101643.22;;;11.37;100.00
71361;BME280;59166;48.908;1.870;2024-01-30T09:16:14;101661.00;;;11.45;100.00
71361;BME280;59166;48.908;1.870;2024-01-30T09:21:15;101671.13;;;11.38;100.00
71361;BME280;59166;48.908;1.870;2024-01-30T09:26:17;101687.25;;;11.56;100.00
71361;BME280;59166;48.908;1.870;2024-01-30T09:31:18;101679.38;;;11.54;100.00
71361;BME280;59166;48.908;1.870;2024-01-30T09:36:18;101681.88;;;11.67;100.00
71361;BME280;59166;48.908;1.870;2024-01-30T09:41:23;101680.56;;;11.70;100.00
71361;BME280;59166;48.908;1.870;2024-01-30T09:46:26;101684.00;;;11.77;100.00
71361;BME280;59166;48.908;1.870;2024-01-30T09:51:27;101696.94;;;11.75;100.00
71361;BME280;59166;48.908;1.870;2024-01-30T09:56:31;101698.09;;;11.79;100.00
71361;BME280;59166;48.908;1.870;2024-01-30T10:01:31;101701.88;;;11.78;100.00
71361;BME280;59166;48.908;1.870;2024-01-30T10:06:35;101714.25;;;11.74;100.00
71361;BME280;59166;48.908;1.870;2024-01-30T10:11:37;101720.41;;;11.40;100.00
71361;BME280;59166;48.908;1.870;2024-01-30T10:16:38;101738.53;;;11.09;100.00
71361;BME280;59166;48.908;1.870;2024-01-30T10:21:39;101735.41;;;10.94;100.00
71361;BME280;59166;48.908;1.870;2024-01-30T10:26:43;101752.66;;;10.93;100.00
71361;BME280;59166;48.908;1.870;2024-01-30T10:31:44;101749.81;;;10.88;100.00
71361;BME280;59166;48.908;1.870;2024-01-30T10:36:46;101756.88;;;10.89;100.00
71361;BME280;59166;48.908;1.870;2024-01-30T10:41:56;101753.34;;;10.89;100.00
71361;BME280;59166;48.908;1.870;2024-01-30T10:47:03;101763.94;;;10.90;100.00
71361;BME280;59166;48.908;1.870;2024-01-30T10:52:08;101769.34;;;10.90;100.00
71361;BME280;59166;48.908;1.870;2024-01-30T10:57:11;101773.84;;;10.96;100.00
71361;BME280;59166;48.908;1.870;2024-01-30T11:02:13;101774.44;;;10.98;100.00
71361;BME280;59166;48.908;1.870;2024-01-30T11:07:15;101781.13;;;11.14;100.00
71361;BME280;59166;48.908;1.870;2024-01-30T11:12:21;101782.66;;;11.21;100.00
71361;BME280;59166;48.908;1.870;2024-01-30T11:17:22;101787.03;;;11.22;100.00
71361;BME280;59166;48.908;1.870;2024-01-30T11:22:23;101790.19;;;11.19;100.00
71361;BME280;59166;48.908;1.870;2024-01-30T11:27:26;101788.69;;;11.23;100.00
71361;BME280;59166;48.908;1.870;2024-01-30T11:32:27;101787.91;;;11.34;100.00
71361;BME280;59166;48.908;1.870;2024-01-30T11:37:28;101801.56;;;11.40;100.00
71361;BME280;59166;48.908;1.870;2024-01-30T11:42:34;101794.50;;;11.38;100.00
71361;BME280;59166;48.908;1.870;2024-01-30T11:47:35;101792.63;;;11.39;100.00
71361;BME280;59166;48.908;1.870;2024-01-30T11:52:36;101790.66;;;11.46;100.00
71361;BME280;59166;48.908;1.870;2024-01-30T11:57:38;101787.72;;;11.48;100.00
71361;BME280;59166;48.908;1.870;2024-01-30T12:02:39;101791.53;;;11.58;100.00
71361;BME280;59166;48.908;1.870;2024-01-30T12:07:40;101792.78;;;11.56;100.00
71361;BME280;59166;48.908;1.870;2024-01-30T12:12:47;101794.50;;;11.38;100.00
71361;BME280;59166;48.908;1.870;2024-01-30T12:17:48;101788.69;;;11.23;100.00
71361;BME280;59166;48.908;1.870;2024-01-30T12:22:49;101782.44;;;11.23;100.00
71361;BME280;59166;48.908;1.870;2024-01-30T12:27:52;101777.13;;;11.16;100.00
71361;BME280;59166;48.908;1.870;2024-01-30T12:32:52;101779.25;;;11.14;100.00
71361;BME280;59166;48.908;1.870;2024-01-30T12:37:53;101789.50;;;11.24;100.00
71361;BME280;59166;48.908;1.870;2024-01-30T12:42:55;101793.09;;;11.18;100.00
71361;BME280;59166;48.908;1.870;2024-01-30T12:47:56;101798.88;;;11.21;100.00
71361;BME280;59166;48.908;1.870;2024-01-30T12:52:57;101799.22;;;11.13;100.00
71361;BME280;59166;48.908;1.870;2024-01-30T12:57:59;101796.84;;;11.35;100.00
71361;BME280;59166;48.908;1.870;2024-01-30T13:03:00;101792.78;;;11.44;100.00
71361;BME280;59166;48.908;1.870;2024-01-30T13:08:00;101788.78;;;11.47;100.00
71361;BME280;59166;48.908;1.870;2024-01-30T13:13:03;101783.63;;;11.57;96.91
71361;BME280;59166;48.908;1.870;2024-01-30T13:18:04;101789.63;;;11.59;98.92
71361;BME280;59166;48.908;1.870;2024-01-30T13:23:04;101788.78;;;11.47;97.07
71361;BME280;59166;48.908;1.870;2024-01-30T13:28:07;101787.47;;;11.38;94.30
71361;BME280;59166;48.908;1.870;2024-01-30T13:33:08;101790.00;;;11.32;94.75
71361;BME280;59166;48.908;1.870;2024-01-30T13:38:09;101787.00;;;11.41;98.04
71361;BME280;59166;48.908;1.870;2024-01-30T13:43:11;101789.72;;;11.82;96.82
71361;BME280;59166;48.908;1.870;2024-01-30T13:48:12;101788.81;;;12.11;94.48
71361;BME280;59166;48.908;1.870;2024-01-30T13:53:13;101797.66;;;12.30;90.05
71361;BME280;59166;48.908;1.870;2024-01-30T13:58:15;101800.84;;;12.15;92.03
71361;BME280;59166;48.908;1.870;2024-01-30T14:03:15;101803.94;;;11.89;89.33
71361;BME280;59166;48.908;1.870;2024-01-30T14:08:16;101810.97;;;11.67;91.06
71361;BME280;59166;48.908;1.870;2024-01-30T14:13:18;101813.72;;;11.49;91.36
71361;BME280;59166;48.908;1.870;2024-01-30T14:18:19;101823.38;;;11.45;91.06
71361;BME280;59166;48.908;1.870;2024-01-30T14:23:20;101829.81;;;11.44;91.18
71361;BME280;59166;48.908;1.870;2024-01-30T14:28:22;101835.31;;;11.37;92.61
71361;BME280;59166;48.908;1.870;2024-01-30T14:33:23;101835.38;;;11.49;92.06
71361;BME280;59166;48.908;1.870;2024-01-30T14:38:23;101841.31;;;11.69;92.01
71361;BME280;59166;48.908;1.870;2024-01-30T14:43:25;101849.34;;;12.05;88.98
71361;BME280;59166;48.908;1.870;2024-01-30T14:48:26;101848.06;;;12.19;87.70
71361;BME280;59166;48.908;1.870;2024-01-30T14:53:26;101856.84;;;12.03;90.45
71361;BME280;59166;48.908;1.870;2024-01-30T14:58:28;101855.56;;;11.64;87.19
71361;BME280;59166;48.908;1.870;2024-01-30T15:03:29;101860.34;;;11.32;88.67
71361;BME280;59166;48.908;1.870;2024-01-30T15:08:30;101867.22;;;11.17;93.95
71361;BME280;59166;48.908;1.870;2024-01-30T15:13:32;101870.13;;;11.15;90.78
71361;BME280;59166;48.908;1.870;2024-01-30T15:18:32;101872.28;;;11.25;89.48
71361;BME280;59166;48.908;1.870;2024-01-30T15:23:33;101876.44;;;11.27;88.52
71361;BME280;59166;48.908;1.870;2024-01-30T15:28:36;101879.81;;;11.23;87.33
71361;BME280;59166;48.908;1.870;2024-01-30T15:33:37;101886.34;;;11.15;88.94
71361;BME280;59166;48.908;1.870;2024-01-30T15:38:37;101882.00;;;10.96;93.35
71361;BME280;59166;48.908;1.870;2024-01-30T15:43:39;101888.81;;;10.80;92.04
71361;BME280;59166;48.908;1.870;2024-01-30T15:48:40;101895.13;;;10.68;94.10
71361;BME280;59166;48.908;1.870;2024-01-30T15:53:41;101903.97;;;10.57;96.60
71361;BME280;59166;48.908;1.870;2024-01-30T15:58:42;101907.59;;;10.44;98.18
71361;BME280;59166;48.908;1.870;2024-01-30T16:03:43;101907.88;;;10.36;98.75
71361;BME280;59166;48.908;1.870;2024-01-30T16:08:44;101916.31;;;10.21;100.00
71361;BME280;59166;48.908;1.870;2024-01-30T16:13:46;101914.47;;;10.15;97.86
71361;BME280;59166;48.908;1.870;2024-01-30T16:18:46;101924.06;;;10.11;99.89
71361;BME280;59166;48.908;1.870;2024-01-30T16:23:47;101929.09;;;10.01;100.00
71361;BME280;59166;48.908;1.870;2024-01-30T16:28:49;101925.22;;;9.91;100.00
71361;BME280;59166;48.908;1.870;2024-01-30T16:33:49;101930.13;;;10.00;99.52
71361;BME280;59166;48.908;1.870;2024-01-30T16:38:50;101940.78;;;9.95;100.00
71361;BME280;59166;48.908;1.870;2024-01-30T16:43:52;101940.78;;;9.95;100.00
71361;BME280;59166;48.908;1.870;2024-01-30T16:48:52;101950.94;;;9.93;100.00
71361;BME280;59166;48.908;1.870;2024-01-30T16:53:53;101957.63;;;9.84;100.00
71361;BME280;59166;48.908;1.870;2024-01-30T16:58:55;101955.56;;;9.79;100.00
71361;BME280;59166;48.908;1.870;2024-01-30T17:03:56;101964.78;;;9.65;100.00
71361;BME280;59166;48.908;1.870;2024-01-30T17:08:57;101970.41;;;9.57;100.00
71361;BME280;59166;48.908;1.870;2024-01-30T17:13:59;101971.88;;;9.53;100.00
71361;BME280;59166;48.908;1.870;2024-01-30T17:19:00;101972.31;;;9.50;100.00
71361;BME280;59166;48.908;1.870;2024-01-30T17:24:01;101974.84;;;9.39;100.00
71361;BME280;59166;48.908;1.870;2024-01-30T17:29:03;101979.00;;;9.35;100.00
71361;BME280;59166;48.908;1.870;2024-01-30T17:34:03;101980.63;;;9.36;100.00
71361;BME280;59166;48.908;1.870;2024-01-30T17:39:04;101975.47;;;9.27;100.00
71361;BME280;59166;48.908;1.870;2024-01-30T17:44:07;101995.84;;;9.04;100.00
71361;BME280;59166;48.908;1.870;2024-01-30T17:49:07;101997.09;;;9.01;100.00
71361;BME280;59166;48.908;1.870;2024-01-30T17:54:08;101999.38;;;8.98;100.00
71361;BME280;59166;48.908;1.870;2024-01-30T17:59:10;102000.81;;;8.87;100.00
71361;BME280;59166;48.908;1.870;2024-01-30T18:04:11;102008.88;;;8.87;100.00
71361;BME280;59166;48.908;1.870;2024-01-30T18:09:12;102008.50;;;8.90;100.00
71361;BME280;59166;48.908;1.870;2024-01-30T18:14:14;102013.88;;;8.90;100.00
71361;BME280;59166;48.908;1.870;2024-01-30T18:19:14;102017.56;;;8.76;100.00
71361;BME280;59166;48.908;1.870;2024-01-30T18:24:15;102030.44;;;8.61;100.00
71361;BME280;59166;48.908;1.870;2024-01-30T18:29:17;102028.09;;;8.51;100.00
71361;BME280;59166;48.908;1.870;2024-01-30T18:34:18;102017.13;;;8.40;100.00
71361;BME280;59166;48.908;1.870;2024-01-30T18:39:18;102025.81;;;8.35;100.00
71361;BME280;59166;48.908;1.870;2024-01-30T18:44:20;102033.88;;;8.35;100.00
71361;BME280;59166;48.908;1.870;2024-01-30T18:49:21;102031.59;;;8.32;100.00
71361;BME280;59166;48.908;1.870;2024-01-30T18:54:21;102034.47;;;8.30;100.00
71361;BME280;59166;48.908;1.870;2024-01-30T18:59:23;102035.09;;;8.19;100.00
71361;BME280;59166;48.908;1.870;2024-01-30T19:04:24;102047.69;;;8.12;100.00
71361;BME280;59166;48.908;1.870;2024-01-30T19:09:25;102058.22;;;8.07;100.00
71361;BME280;59166;48.908;1.870;2024-01-30T19:14:27;102069.25;;;8.19;100.00
71361;BME280;59166;48.908;1.870;2024-01-30T19:19:27;102067.16;;;8.21;100.00
71361;BME280;59166;48.908;1.870;2024-01-30T19:24:28;102071.28;;;8.10;100.00
71361;BME280;59166;48.908;1.870;2024-01-30T19:29:30;102074.16;;;8.02;100.00
71361;BME280;59166;48.908;1.870;2024-01-30T19:34:30;102064.38;;;7.95;100.00
71361;BME280;59166;48.908;1.870;2024-01-30T19:39:31;102056.84;;;7.77;100.00
71361;BME280;59166;48.908;1.870;2024-01-30T19:44:33;102059.94;;;7.74;100.00
71361;BME280;59166;48.908;1.870;2024-01-30T19:49:34;102057.06;;;7.75;100.00
71361;BME280;59166;48.908;1.870;2024-01-30T19:54:34;102051.19;;;7.65;100.00
71361;BME280;59166;48.908;1.870;2024-01-30T19:59:36;102062.72;;;7.53;100.00
71361;BME280;59166;48.908;1.870;2024-01-30T20:04:37;102065.91;;;7.35;100.00
71361;BME280;59166;48.908;1.870;2024-01-30T20:09:39;102075.59;;;7.36;100.00
71361;BME280;59166;48.908;1.870;2024-01-30T20:14:41;102079.09;;;7.30;100.00
71361;BME280;59166;48.908;1.870;2024-01-30T20:19:43;102079.13;;;7.37;100.00
71361;BME280;59166;48.908;1.870;2024-01-30T20:24:44;102082.47;;;7.39;100.00
71361;BME280;59166;48.908;1.870;2024-01-30T20:29:46;102084.50;;;7.37;100.00
71361;BME280;59166;48.908;1.870;2024-01-30T20:34:47;102088.41;;;7.34;100.00
71361;BME280;59166;48.908;1.870;2024-01-30T20:39:47;102087.00;;;7.38;100.00
71361;BME280;59166;48.908;1.870;2024-01-30T20:44:49;102097.28;;;7.28;100.00
71361;BME280;59166;48.908;1.870;2024-01-30T20:49:50;102094.59;;;7.28;100.00
71361;BME280;59166;48.908;1.870;2024-01-30T20:54:51;102095.38;;;7.22;100.00
71361;BME280;59166;48.908;1.870;2024-01-30T20:59:53;102098.00;;;7.15;100.00
71361;BME280;59166;48.908;1.870;2024-01-30T21:04:53;102093.59;;;7.08;100.00
71361;BME280;59166;48.908;1.870;2024-01-30T21:09:54;102101.72;;;7.14;100.00
71361;BME280;59166;48.908;1.870;2024-01-30T21:14:56;102117.31;;;7.04;100.00
71361;BME280;59166;48.908;1.870;2024-01-30T21:19:56;102113.88;;;6.89;100.00
71361;BME280;59166;48.908;1.870;2024-01-30T21:24:57;102110.72;;;6.86;100.00
71361;BME280;59166;48.908;1.870;2024-01-30T21:29:59;102119.06;;;6.91;100.00
71361;BME280;59166;48.908;1.870;2024-01-30T21:35:00;102136.06;;;6.98;100.00
71361;BME280;59166;48.908;1.870;2024-01-30T21:40:01;102132.78;;;7.02;100.00
71361;BME280;59166;48.908;1.870;2024-01-30T21:45:03;102131.38;;;7.06;100.00
71361;BME280;59166;48.908;1.870;2024-01-30T21:50:05;102135.63;;;6.94;100.00
71361;BME280;59166;48.908;1.870;2024-01-30T21:55:08;102138.31;;;6.94;100.00
71361;BME280;59166;48.908;1.870;2024-01-30T22:00:12;102148.28;;;7.00;100.00
71361;BME280;59166;48.908;1.870;2024-01-30T22:05:13;102147.28;;;7.01;100.00
71361;BME280;59166;48.908;1.870;2024-01-30T22:10:14;102153.28;;;7.03;100.00
71361;BME280;59166;48.908;1.870;2024-01-30T22:15:16;102150.13;;;7.00;100.00
71361;BME280;59166;48.908;1.870;2024-01-30T22:20:17;102157.38;;;6.99;100.00
71361;BME280;59166;48.908;1.870;2024-01-30T22:25:17;102156.16;;;7.02;100.00
71361;BME280;59166;48.908;1.870;2024-01-30T22:30:19;102162.88;;;7.12;100.00
71361;BME280;59166;48.908;1.870;2024-01-30T22:35:20;102163.00;;;7.04;100.00
71361;BME280;59166;48.908;1.870;2024-01-30T22:40:21;102164.69;;;7.05;100.00
71361;BME280;59166;48.908;1.870;2024-01-30T22:45:23;102161.41;;;7.10;100.00
71361;BME280;59166;48.908;1.870;2024-01-30T22:50:24;102164.97;;;7.17;100.00
71361;BME280;59166;48.908;1.870;2024-01-30T22:55:24;102167.72;;;7.02;100.00
71361;BME280;59166;48.908;1.870;2024-01-30T23:00:26;102163.34;;;6.95;100.00
71361;BME280;59166;48.908;1.870;2024-01-30T23:05:27;102168.44;;;6.90;100.00
71361;BME280;59166;48.908;1.870;2024-01-30T23:10:28;102173.34;;;6.86;100.00
71361;BME280;59166;48.908;1.870;2024-01-30T23:15:30;102181.31;;;6.94;100.00
71361;BME280;59166;48.908;1.870;2024-01-30T23:20:30;102185.78;;;6.87;100.00
71361;BME280;59166;48.908;1.870;2024-01-30T23:25:31;102181.78;;;6.83;100.00
71361;BME280;59166;48.908;1.870;2024-01-30T23:30:33;102184.47;;;6.83;100.00
71361;BME280;59166;48.908;1.870;2024-01-30T23:35:34;102178.19;;;6.76;100.00
71361;BME280;59166;48.908;1.870;2024-01-30T23:40:34;102188.03;;;6.69;100.00
71361;BME280;59166;48.908;1.870;2024-01-30T23:45:36;102180.50;;;6.79;100.00
71361;BME280;59166;48.908;1.870;2024-01-30T23:50:37;102183.19;;;6.79;100.00
71361;BME280;59166;48.908;1.870;2024-01-30T23:55:38;102187.09;;;6.76;100.00
